sensor_id;sensor_type;location;lat;lon;timestamp;temperature;humidity
41220;DHT22;26951;47.338;9.196;2022-10-04T00:04:59;7.30;70.00
41220;DHT22;26951;47.338;9.196;2022-10-04T00:07:51;7.30;68.70
41220;DHT22;26951;47.338;9.196;2022-10-04T00:10:35;7.20;68.00
41220;DHT22;26951;47.338;9.196;2022-10-04T00:13:24;7.20;67.40
41220;DHT22;26951;47.338;9.196;2022-10-04T00:16:31;7.10;67.90
41220;DHT22;26951;47.338;9.196;2022-10-04T00:19:21;7.10;69.60
41220;DHT22;26951;47.338;9.196;2022-10-04T00:22:08;7.10;69.20
41220;DHT22;26951;47.338;9.196;2022-10-04T00:28:15;7.00;69.40
41220;DHT22;26951;47.338;9.196;2022-10-04T00:31:15;7.00;69.90
41220;DHT22;26951;47.338;9.196;2022-10-04T00:36:50;6.90;68.50
41220;DHT22;26951;47.338;9.196;2022-10-04T00:39:38;6.80;68.10
41220;DHT22;26951;47.338;9.196;2022-10-04T00:42:28;6.80;68.20
41220;DHT22;26951;47.338;9.196;2022-10-04T00:45:45;6.80;69.70
41220;DHT22;26951;47.338;9.196;2022-10-04T00:48:35;6.70;70.70
41220;DHT22;26951;47.338;9.196;2022-10-04T00:54:31;6.60;71.90
41220;DHT22;26951;47.338;9.196;2022-10-04T00:57:25;6.60;72.60
41220;DHT22;26951;47.338;9.196;2022-10-04T01:00:13;6.60;72.60
41220;DHT22;26951;47.338;9.196;2022-10-04T01:03:10;6.60;71.10
41220;DHT22;26951;47.338;9.196;2022-10-04T01:06:00;6.60;69.80
41220;DHT22;26951;47.338;9.196;2022-10-04T01:08:52;6.60;69.30
41220;DHT22;26951;47.338;9.196;2022-10-04T01:11:41;6.50;69.80
41220;DHT22;26951;47.338;9.196;2022-10-04T01:17:19;6.50;71.10
41220;DHT22;26951;47.338;9.196;2022-10-04T01:20:38;6.50;69.90
41220;DHT22;26951;47.338;9.196;2022-10-04T01:23:44;6.40;69.00
41220;DHT22;26951;47.338;9.196;2022-10-04T01:26:33;6.40;69.70
41220;DHT22;26951;47.338;9.196;2022-10-04T01:29:27;6.40;71.00
41220;DHT22;26951;47.338;9.196;2022-10-04T01:32:12;6.40;72.10
41220;DHT22;26951;47.338;9.196;2022-10-04T01:34:56;6.40;71.40
41220;DHT22;26951;47.338;9.196;2022-10-04T01:37:40;6.40;71.20
41220;DHT22;26951;47.338;9.196;2022-10-04T01:40:24;6.30;69.70
41220;DHT22;26951;47.338;9.196;2022-10-04T01:43:12;6.20;68.00
41220;DHT22;26951;47.338;9.196;2022-10-04T01:46:02;6.20;69.40
41220;DHT22;26951;47.338;9.196;2022-10-04T01:48:48;6.20;71.90
41220;DHT22;26951;47.338;9.196;2022-10-04T01:51:41;6.10;72.90
41220;DHT22;26951;47.338;9.196;2022-10-04T01:54:35;6.20;74.30
41220;DHT22;26951;47.338;9.196;2022-10-04T01:57:24;6.20;73.80
41220;DHT22;26951;47.338;9.196;2022-10-04T02:00:11;6.20;72.20
41220;DHT22;26951;47.338;9.196;2022-10-04T02:03:20;6.10;71.60
41220;DHT22;26951;47.338;9.196;2022-10-04T02:06:07;6.10;71.60
41220;DHT22;26951;47.338;9.196;2022-10-04T02:08:53;6.10;71.70
41220;DHT22;26951;47.338;9.196;2022-10-04T02:11:42;6.10;70.70
41220;DHT22;26951;47.338;9.196;2022-10-04T02:14:33;6.10;71.10
41220;DHT22;26951;47.338;9.196;2022-10-04T02:17:32;6.10;71.10
41220;DHT22;26951;47.338;9.196;2022-10-04T02:20:24;6.00;70.40
41220;DHT22;26951;47.338;9.196;2022-10-04T02:23:10;6.00;71.00
41220;DHT22;26951;47.338;9.196;2022-10-04T02:25:54;6.00;70.90
41220;DHT22;26951;47.338;9.196;2022-10-04T02:28:39;5.90;70.60
41220;DHT22;26951;47.338;9.196;2022-10-04T02:31:23;5.90;71.00
41220;DHT22;26951;47.338;9.196;2022-10-04T02:34:27;5.90;72.60
41220;DHT22;26951;47.338;9.196;2022-10-04T02:37:12;5.90;73.20
41220;DHT22;26951;47.338;9.196;2022-10-04T02:40:13;5.80;71.60
41220;DHT22;26951;47.338;9.196;2022-10-04T02:43:02;5.80;71.60
41220;DHT22;26951;47.338;9.196;2022-10-04T02:46:14;5.80;72.10
41220;DHT22;26951;47.338;9.196;2022-10-04T02:49:11;5.80;71.70
41220;DHT22;26951;47.338;9.196;2022-10-04T02:52:11;5.70;70.30
41220;DHT22;26951;47.338;9.196;2022-10-04T02:54:58;5.70;70.20
41220;DHT22;26951;47.338;9.196;2022-10-04T02:57:45;5.70;70.90
41220;DHT22;26951;47.338;9.196;2022-10-04T03:00:31;5.60;71.00
41220;DHT22;26951;47.338;9.196;2022-10-04T03:06:18;5.60;74.10
41220;DHT22;26951;47.338;9.196;2022-10-04T03:09:04;5.60;74.60
41220;DHT22;26951;47.338;9.196;2022-10-04T03:11:49;5.60;75.20
41220;DHT22;26951;47.338;9.196;2022-10-04T03:14:34;5.60;74.50
41220;DHT22;26951;47.338;9.196;2022-10-04T03:17:18;5.60;74.00
41220;DHT22;26951;47.338;9.196;2022-10-04T03:20:04;5.60;73.40
41220;DHT22;26951;47.338;9.196;2022-10-04T03:22:52;5.60;72.80
41220;DHT22;26951;47.338;9.196;2022-10-04T03:25:58;5.60;71.80
41220;DHT22;26951;47.338;9.196;2022-10-04T03:28:44;5.60;72.80
41220;DHT22;26951;47.338;9.196;2022-10-04T03:31:30;5.60;74.10
41220;DHT22;26951;47.338;9.196;2022-10-04T03:34:22;5.50;74.70
41220;DHT22;26951;47.338;9.196;2022-10-04T03:37:16;5.50;74.20
41220;DHT22;26951;47.338;9.196;2022-10-04T03:40:07;5.50;75.30
41220;DHT22;26951;47.338;9.196;2022-10-04T03:42:53;5.50;76.30
41220;DHT22;26951;47.338;9.196;2022-10-04T03:45:38;5.60;76.70
41220;DHT22;26951;47.338;9.196;2022-10-04T03:48:33;5.60;76.10
41220;DHT22;26951;47.338;9.196;2022-10-04T03:51:20;5.60;75.00
41220;DHT22;26951;47.338;9.196;2022-10-04T03:54:07;5.60;74.50
41220;DHT22;26951;47.338;9.196;2022-10-04T03:56:55;5.60;74.30
41220;DHT22;26951;47.338;9.196;2022-10-04T03:59:40;5.60;75.10
41220;DHT22;26951;47.338;9.196;2022-10-04T04:02:33;5.60;76.20
41220;DHT22;26951;47.338;9.196;2022-10-04T04:08:32;5.60;76.40
41220;DHT22;26951;47.338;9.196;2022-10-04T04:11:26;5.60;74.20
41220;DHT22;26951;47.338;9.196;2022-10-04T04:14:15;5.50;73.20
41220;DHT22;26951;47.338;9.196;2022-10-04T04:20:31;5.50;74.60
41220;DHT22;26951;47.338;9.196;2022-10-04T04:26:13;5.50;74.80
41220;DHT22;26951;47.338;9.196;2022-10-04T04:29:21;5.50;74.20
41220;DHT22;26951;47.338;9.196;2022-10-04T04:35:30;5.40;71.90
41220;DHT22;26951;47.338;9.196;2022-10-04T04:38:23;5.40;72.00
41220;DHT22;26951;47.338;9.196;2022-10-04T04:41:10;5.40;71.90
41220;DHT22;26951;47.338;9.196;2022-10-04T04:43:54;5.30;71.50
41220;DHT22;26951;47.338;9.196;2022-10-04T04:46:39;5.30;71.70
41220;DHT22;26951;47.338;9.196;2022-10-04T04:49:27;5.20;73.70
41220;DHT22;26951;47.338;9.196;2022-10-04T04:52:15;5.20;74.80
41220;DHT22;26951;47.338;9.196;2022-10-04T04:55:03;5.30;75.90
41220;DHT22;26951;47.338;9.196;2022-10-04T04:57:50;5.30;76.20
41220;DHT22;26951;47.338;9.196;2022-10-04T05:00:37;5.30;75.20
41220;DHT22;26951;47.338;9.196;2022-10-04T05:03:22;5.20;74.60
41220;DHT22;26951;47.338;9.196;2022-10-04T05:06:24;5.30;74.50
41220;DHT22;26951;47.338;9.196;2022-10-04T05:09:23;5.20;75.00
41220;DHT22;26951;47.338;9.196;2022-10-04T05:14:57;5.20;75.30
41220;DHT22;26951;47.338;9.196;2022-10-04T05:17:42;5.20;74.20
41220;DHT22;26951;47.338;9.196;2022-10-04T05:20:26;5.20;74.20
41220;DHT22;26951;47.338;9.196;2022-10-04T05:23:11;5.20;75.70
41220;DHT22;26951;47.338;9.196;2022-10-04T05:25:57;5.20;76.10
41220;DHT22;26951;47.338;9.196;2022-10-04T05:28:43;5.30;75.00
41220;DHT22;26951;47.338;9.196;2022-10-04T05:34:43;5.30;73.70
41220;DHT22;26951;47.338;9.196;2022-10-04T05:37:44;5.20;73.50
41220;DHT22;26951;47.338;9.196;2022-10-04T05:43:46;5.20;75.30
41220;DHT22;26951;47.338;9.196;2022-10-04T05:46:34;5.20;76.70
41220;DHT22;26951;47.338;9.196;2022-10-04T05:49:20;5.20;77.80
41220;DHT22;26951;47.338;9.196;2022-10-04T05:52:13;5.30;79.20
41220;DHT22;26951;47.338;9.196;2022-10-04T05:55:21;5.30;78.70
41220;DHT22;26951;47.338;9.196;2022-10-04T06:04:33;5.40;77.20
41220;DHT22;26951;47.338;9.196;2022-10-04T06:07:28;5.40;77.80
41220;DHT22;26951;47.338;9.196;2022-10-04T06:16:54;5.50;77.30
41220;DHT22;26951;47.338;9.196;2022-10-04T06:19:57;5.50;78.10
41220;DHT22;26951;47.338;9.196;2022-10-04T06:22:46;5.50;78.50
41220;DHT22;26951;47.338;9.196;2022-10-04T06:25:35;5.60;79.80
41220;DHT22;26951;47.338;9.196;2022-10-04T06:28:26;5.60;79.60
41220;DHT22;26951;47.338;9.196;2022-10-04T06:31:31;5.70;79.50
41220;DHT22;26951;47.338;9.196;2022-10-04T06:51:55;6.40;88.90
41220;DHT22;26951;47.338;9.196;2022-10-04T07:01:31;7.10;92.10
41220;DHT22;26951;47.338;9.196;2022-10-04T07:04:41;7.40;93.20
41220;DHT22;26951;47.338;9.196;2022-10-04T07:07:32;7.70;94.20
41220;DHT22;26951;47.338;9.196;2022-10-04T07:10:33;8.10;94.90
41220;DHT22;26951;47.338;9.196;2022-10-04T07:13:29;8.40;95.10
41220;DHT22;26951;47.338;9.196;2022-10-04T07:27:57;10.00;92.30
41220;DHT22;26951;47.338;9.196;2022-10-04T07:31:12;10.30;91.90
41220;DHT22;26951;47.338;9.196;2022-10-04T07:34:00;10.70;90.80
41220;DHT22;26951;47.338;9.196;2022-10-04T07:36:56;11.00;87.80
41220;DHT22;26951;47.338;9.196;2022-10-04T07:42:49;11.30;77.20
41220;DHT22;26951;47.338;9.196;2022-10-04T07:45:38;11.30;75.90
41220;DHT22;26951;47.338;9.196;2022-10-04T07:48:23;11.30;72.10
41220;DHT22;26951;47.338;9.196;2022-10-04T07:54:15;11.40;71.50
41220;DHT22;26951;47.338;9.196;2022-10-04T07:57:21;11.60;72.20
41220;DHT22;26951;47.338;9.196;2022-10-04T08:06:34;11.80;71.40
41220;DHT22;26951;47.338;9.196;2022-10-04T08:09:25;11.90;69.50
41220;DHT22;26951;47.338;9.196;2022-10-04T08:20:59;12.40;66.50
41220;DHT22;26951;47.338;9.196;2022-10-04T08:23:55;12.50;69.70
41220;DHT22;26951;47.338;9.196;2022-10-04T08:27:07;12.70;71.00
41220;DHT22;26951;47.338;9.196;2022-10-04T08:36:46;13.60;68.70
41220;DHT22;26951;47.338;9.196;2022-10-04T08:42:45;14.20;65.60
41220;DHT22;26951;47.338;9.196;2022-10-04T08:46:05;14.30;61.80
41220;DHT22;26951;47.338;9.196;2022-10-04T08:49:38;14.50;58.50
41220;DHT22;26951;47.338;9.196;2022-10-04T08:56:14;14.70;63.90
41220;DHT22;26951;47.338;9.196;2022-10-04T09:02:25;14.80;62.40
41220;DHT22;26951;47.338;9.196;2022-10-04T09:18:06;14.60;60.80
41220;DHT22;26951;47.338;9.196;2022-10-04T09:21:11;14.70;59.50
41220;DHT22;26951;47.338;9.196;2022-10-04T09:24:16;14.80;60.40
41220;DHT22;26951;47.338;9.196;2022-10-04T09:30:14;14.90;62.90
41220;DHT22;26951;47.338;9.196;2022-10-04T09:48:53;16.10;58.70
41220;DHT22;26951;47.338;9.196;2022-10-04T09:55:21;16.60;57.60
41220;DHT22;26951;47.338;9.196;2022-10-04T10:11:11;17.60;58.80
41220;DHT22;26951;47.338;9.196;2022-10-04T10:20:32;18.20;55.30
41220;DHT22;26951;47.338;9.196;2022-10-04T10:23:52;18.30;57.60
41220;DHT22;26951;47.338;9.196;2022-10-04T10:26:56;18.40;56.50
41220;DHT22;26951;47.338;9.196;2022-10-04T10:30:02;18.60;56.60
41220;DHT22;26951;47.338;9.196;2022-10-04T10:39:47;18.40;55.10
41220;DHT22;26951;47.338;9.196;2022-10-04T10:56:06;18.70;55.40
41220;DHT22;26951;47.338;9.196;2022-10-04T11:05:41;18.80;53.30
41220;DHT22;26951;47.338;9.196;2022-10-04T11:09:11;18.70;55.00
41220;DHT22;26951;47.338;9.196;2022-10-04T11:15:49;18.80;55.80
41220;DHT22;26951;47.338;9.196;2022-10-04T11:28:56;19.40;55.20
41220;DHT22;26951;47.338;9.196;2022-10-04T11:38:12;19.10;53.40
41220;DHT22;26951;47.338;9.196;2022-10-04T11:44:36;19.20;54.50
41220;DHT22;26951;47.338;9.196;2022-10-04T11:47:47;19.20;53.50
41220;DHT22;26951;47.338;9.196;2022-10-04T12:00:12;20.30;53.90
41220;DHT22;26951;47.338;9.196;2022-10-04T12:09:42;20.60;51.70
41220;DHT22;26951;47.338;9.196;2022-10-04T12:25:14;20.60;49.50
41220;DHT22;26951;47.338;9.196;2022-10-04T12:31:21;20.20;52.20
41220;DHT22;26951;47.338;9.196;2022-10-04T12:37:07;20.20;52.90
41220;DHT22;26951;47.338;9.196;2022-10-04T12:40:11;20.20;52.00
41220;DHT22;26951;47.338;9.196;2022-10-04T12:46:33;20.30;52.00
41220;DHT22;26951;47.338;9.196;2022-10-04T12:49:27;20.20;52.60
41220;DHT22;26951;47.338;9.196;2022-10-04T12:52:20;20.10;52.90
41220;DHT22;26951;47.338;9.196;2022-10-04T12:56:03;20.10;53.10
41220;DHT22;26951;47.338;9.196;2022-10-04T12:58:33;20.10;52.90
41220;DHT22;26951;47.338;9.196;2022-10-04T13:04:35;20.00;53.20
41220;DHT22;26951;47.338;9.196;2022-10-04T13:10:41;19.80;52.70
41220;DHT22;26951;47.338;9.196;2022-10-04T13:13:52;19.70;54.10
41220;DHT22;26951;47.338;9.196;2022-10-04T13:19:49;19.80;52.40
41220;DHT22;26951;47.338;9.196;2022-10-04T13:31:51;19.50;54.10
41220;DHT22;26951;47.338;9.196;2022-10-04T13:34:48;19.60;53.70
41220;DHT22;26951;47.338;9.196;2022-10-04T13:40:58;19.30;54.70
41220;DHT22;26951;47.338;9.196;2022-10-04T13:44:12;19.20;55.80
41220;DHT22;26951;47.338;9.196;2022-10-04T13:47:20;19.10;55.90
41220;DHT22;26951;47.338;9.196;2022-10-04T13:50:25;19.00;56.20
41220;DHT22;26951;47.338;9.196;2022-10-04T13:53:19;19.00;55.50
41220;DHT22;26951;47.338;9.196;2022-10-04T14:02:56;19.00;54.70
41220;DHT22;26951;47.338;9.196;2022-10-04T14:06:11;19.00;55.40
41220;DHT22;26951;47.338;9.196;2022-10-04T14:12:39;18.90;53.10
41220;DHT22;26951;47.338;9.196;2022-10-04T14:15:48;18.80;55.90
41220;DHT22;26951;47.338;9.196;2022-10-04T14:19:05;18.70;55.90
41220;DHT22;26951;47.338;9.196;2022-10-04T14:22:10;18.70;55.40
41220;DHT22;26951;47.338;9.196;2022-10-04T14:50:05;18.30;56.90
41220;DHT22;26951;47.338;9.196;2022-10-04T14:53:13;18.40;56.90
41220;DHT22;26951;47.338;9.196;2022-10-04T15:05:27;18.40;56.40
41220;DHT22;26951;47.338;9.196;2022-10-04T15:11:11;18.50;56.90
41220;DHT22;26951;47.338;9.196;2022-10-04T15:14:03;18.50;57.50
41220;DHT22;26951;47.338;9.196;2022-10-04T15:16:54;18.40;58.00
41220;DHT22;26951;47.338;9.196;2022-10-04T15:20:06;18.40;57.60
41220;DHT22;26951;47.338;9.196;2022-10-04T15:23:17;18.30;57.50
41220;DHT22;26951;47.338;9.196;2022-10-04T15:26:36;18.20;57.80
41220;DHT22;26951;47.338;9.196;2022-10-04T15:29:40;18.10;57.80
41220;DHT22;26951;47.338;9.196;2022-10-04T15:32:53;18.00;58.30
41220;DHT22;26951;47.338;9.196;2022-10-04T15:38:54;17.70;57.40
41220;DHT22;26951;47.338;9.196;2022-10-04T15:41:51;17.60;58.60
41220;DHT22;26951;47.338;9.196;2022-10-04T15:57:28;17.10;59.70
41220;DHT22;26951;47.338;9.196;2022-10-04T16:00:24;17.00;59.70
41220;DHT22;26951;47.338;9.196;2022-10-04T16:03:22;17.00;59.70
41220;DHT22;26951;47.338;9.196;2022-10-04T16:06:24;16.90;59.30
41220;DHT22;26951;47.338;9.196;2022-10-04T16:12:28;16.80;58.20
41220;DHT22;26951;47.338;9.196;2022-10-04T16:15:19;16.70;57.90
41220;DHT22;26951;47.338;9.196;2022-10-04T16:24:42;16.30;57.70
41220;DHT22;26951;47.338;9.196;2022-10-04T16:30:40;16.00;58.10
41220;DHT22;26951;47.338;9.196;2022-10-04T16:34:00;15.90;57.80
41220;DHT22;26951;47.338;9.196;2022-10-04T16:42:58;15.40;57.50
41220;DHT22;26951;47.338;9.196;2022-10-04T16:46:51;15.20;58.80
41220;DHT22;26951;47.338;9.196;2022-10-04T16:49:36;15.10;58.80
41220;DHT22;26951;47.338;9.196;2022-10-04T16:55:24;14.80;58.30
41220;DHT22;26951;47.338;9.196;2022-10-04T17:13:36;13.80;60.70
41220;DHT22;26951;47.338;9.196;2022-10-04T17:16:37;13.60;61.80
41220;DHT22;26951;47.338;9.196;2022-10-04T17:19:34;13.50;63.00
41220;DHT22;26951;47.338;9.196;2022-10-04T17:28:34;13.10;63.90
41220;DHT22;26951;47.338;9.196;2022-10-04T17:34:47;12.80;63.10
41220;DHT22;26951;47.338;9.196;2022-10-04T17:44:39;12.50;63.60
41220;DHT22;26951;47.338;9.196;2022-10-04T17:51:02;12.20;64.20
41220;DHT22;26951;47.338;9.196;2022-10-04T17:54:38;12.20;62.60
41220;DHT22;26951;47.338;9.196;2022-10-04T17:58:07;12.10;62.40
41220;DHT22;26951;47.338;9.196;2022-10-04T18:01:03;12.00;60.90
41220;DHT22;26951;47.338;9.196;2022-10-04T18:05:14;12.00;60.00
41220;DHT22;26951;47.338;9.196;2022-10-04T18:07:35;11.80;59.60
41220;DHT22;26951;47.338;9.196;2022-10-04T18:10:31;11.70;59.30
41220;DHT22;26951;47.338;9.196;2022-10-04T18:13:19;11.60;59.60
41220;DHT22;26951;47.338;9.196;2022-10-04T18:19:35;11.40;59.30
41220;DHT22;26951;47.338;9.196;2022-10-04T18:22:23;11.30;59.10
41220;DHT22;26951;47.338;9.196;2022-10-04T18:25:20;11.20;59.30
41220;DHT22;26951;47.338;9.196;2022-10-04T18:30:51;11.00;58.50
41220;DHT22;26951;47.338;9.196;2022-10-04T18:36:28;10.90;58.70
41220;DHT22;26951;47.338;9.196;2022-10-04T18:39:20;10.70;58.30
41220;DHT22;26951;47.338;9.196;2022-10-04T18:42:29;10.70;59.30
41220;DHT22;26951;47.338;9.196;2022-10-04T18:45:26;10.60;59.10
41220;DHT22;26951;47.338;9.196;2022-10-04T18:48:15;10.50;59.40
41220;DHT22;26951;47.338;9.196;2022-10-04T19:00:09;10.20;60.00
41220;DHT22;26951;47.338;9.196;2022-10-04T19:03:24;10.10;59.70
41220;DHT22;26951;47.338;9.196;2022-10-04T19:06:29;10.00;60.00
41220;DHT22;26951;47.338;9.196;2022-10-04T19:09:25;10.00;60.40
41220;DHT22;26951;47.338;9.196;2022-10-04T19:12:30;9.90;61.00
41220;DHT22;26951;47.338;9.196;2022-10-04T19:19:04;9.80;61.70
41220;DHT22;26951;47.338;9.196;2022-10-04T19:25:32;9.70;61.00
41220;DHT22;26951;47.338;9.196;2022-10-04T19:28:19;9.60;61.20
41220;DHT22;26951;47.338;9.196;2022-10-04T19:31:22;9.50;62.50
41220;DHT22;26951;47.338;9.196;2022-10-04T19:34:22;9.40;62.80
41220;DHT22;26951;47.338;9.196;2022-10-04T19:37:30;9.40;63.00
41220;DHT22;26951;47.338;9.196;2022-10-04T19:40:38;9.40;62.90
41220;DHT22;26951;47.338;9.196;2022-10-04T19:55:56;9.20;63.30
41220;DHT22;26951;47.338;9.196;2022-10-04T19:58:43;9.20;62.90
41220;DHT22;26951;47.338;9.196;2022-10-04T20:01:28;9.10;63.10
41220;DHT22;26951;47.338;9.196;2022-10-04T20:04:14;9.10;63.00
41220;DHT22;26951;47.338;9.196;2022-10-04T20:07:23;9.10;63.30
41220;DHT22;26951;47.338;9.196;2022-10-04T20:15:58;8.90;63.30
41220;DHT22;26951;47.338;9.196;2022-10-04T20:18:50;8.90;63.70
41220;DHT22;26951;47.338;9.196;2022-10-04T20:21:39;8.80;64.20
41220;DHT22;26951;47.338;9.196;2022-10-04T20:30:12;8.80;65.10
41220;DHT22;26951;47.338;9.196;2022-10-04T20:32:57;8.70;65.40
41220;DHT22;26951;47.338;9.196;2022-10-04T20:38:59;8.70;65.10
41220;DHT22;26951;47.338;9.196;2022-10-04T20:41:44;8.70;65.10
41220;DHT22;26951;47.338;9.196;2022-10-04T20:47:46;8.80;65.30
41220;DHT22;26951;47.338;9.196;2022-10-04T20:50:37;8.70;65.30
41220;DHT22;26951;47.338;9.196;2022-10-04T20:53:30;8.70;65.00
41220;DHT22;26951;47.338;9.196;2022-10-04T20:56:31;8.70;64.60
41220;DHT22;26951;47.338;9.196;2022-10-04T20:59:17;8.70;64.70
41220;DHT22;26951;47.338;9.196;2022-10-04T21:02:02;8.70;65.00
41220;DHT22;26951;47.338;9.196;2022-10-04T21:04:48;8.70;64.60
41220;DHT22;26951;47.338;9.196;2022-10-04T21:07:36;8.60;64.40
41220;DHT22;26951;47.338;9.196;2022-10-04T21:10:20;8.60;64.40
41220;DHT22;26951;47.338;9.196;2022-10-04T21:13:04;8.60;64.50
41220;DHT22;26951;47.338;9.196;2022-10-04T21:15:55;8.60;64.20
41220;DHT22;26951;47.338;9.196;2022-10-04T21:18:40;8.60;64.00
41220;DHT22;26951;47.338;9.196;2022-10-04T21:21:49;8.60;64.30
41220;DHT22;26951;47.338;9.196;2022-10-04T21:24:37;8.60;63.90
41220;DHT22;26951;47.338;9.196;2022-10-04T21:27:36;8.60;63.50
41220;DHT22;26951;47.338;9.196;2022-10-04T21:30:21;8.60;63.40
41220;DHT22;26951;47.338;9.196;2022-10-04T21:33:07;8.50;63.30
41220;DHT22;26951;47.338;9.196;2022-10-04T21:35:51;8.50;63.30
41220;DHT22;26951;47.338;9.196;2022-10-04T21:38:36;8.50;63.50
41220;DHT22;26951;47.338;9.196;2022-10-04T21:41:20;8.40;63.70
41220;DHT22;26951;47.338;9.196;2022-10-04T21:44:04;8.40;63.50
41220;DHT22;26951;47.338;9.196;2022-10-04T21:46:48;8.50;63.50
41220;DHT22;26951;47.338;9.196;2022-10-04T21:49:32;8.50;63.90
41220;DHT22;26951;47.338;9.196;2022-10-04T21:52:17;8.50;64.80
41220;DHT22;26951;47.338;9.196;2022-10-04T21:55:02;8.50;64.70
41220;DHT22;26951;47.338;9.196;2022-10-04T21:57:46;8.50;64.50
41220;DHT22;26951;47.338;9.196;2022-10-04T22:00:30;8.40;64.20
41220;DHT22;26951;47.338;9.196;2022-10-04T22:03:15;8.40;65.00
41220;DHT22;26951;47.338;9.196;2022-10-04T22:05:59;8.40;64.50
41220;DHT22;26951;47.338;9.196;2022-10-04T22:08:44;8.30;63.80
41220;DHT22;26951;47.338;9.196;2022-10-04T22:11:28;8.30;64.20
41220;DHT22;26951;47.338;9.196;2022-10-04T22:14:12;8.30;64.70
41220;DHT22;26951;47.338;9.196;2022-10-04T22:16:56;8.30;65.10
41220;DHT22;26951;47.338;9.196;2022-10-04T22:19:40;8.20;65.00
41220;DHT22;26951;47.338;9.196;2022-10-04T22:22:27;8.20;65.00
41220;DHT22;26951;47.338;9.196;2022-10-04T22:25:17;8.20;65.40
41220;DHT22;26951;47.338;9.196;2022-10-04T22:28:18;8.20;64.90
41220;DHT22;26951;47.338;9.196;2022-10-04T22:31:14;8.20;65.00
41220;DHT22;26951;47.338;9.196;2022-10-04T22:33:58;8.30;65.20
41220;DHT22;26951;47.338;9.196;2022-10-04T22:36:42;8.30;64.70
41220;DHT22;26951;47.338;9.196;2022-10-04T22:39:26;8.30;64.90
41220;DHT22;26951;47.338;9.196;2022-10-04T22:42:13;8.30;64.70
41220;DHT22;26951;47.338;9.196;2022-10-04T22:45:00;8.30;64.50
41220;DHT22;26951;47.338;9.196;2022-10-04T22:47:44;8.30;64.70
41220;DHT22;26951;47.338;9.196;2022-10-04T22:50:31;8.30;64.70
41220;DHT22;26951;47.338;9.196;2022-10-04T22:53:19;8.30;64.70
41220;DHT22;26951;47.338;9.196;2022-10-04T22:56:04;8.30;64.30
41220;DHT22;26951;47.338;9.196;2022-10-04T22:58:48;8.40;64.10
41220;DHT22;26951;47.338;9.196;2022-10-04T23:01:32;8.40;64.30
41220;DHT22;26951;47.338;9.196;2022-10-04T23:04:24;8.40;64.70
41220;DHT22;26951;47.338;9.196;2022-10-04T23:07:08;8.40;65.00
41220;DHT22;26951;47.338;9.196;2022-10-04T23:09:52;8.40;64.70
41220;DHT22;26951;47.338;9.196;2022-10-04T23:12:37;8.40;64.10
41220;DHT22;26951;47.338;9.196;2022-10-04T23:15:21;8.30;63.80
41220;DHT22;26951;47.338;9.196;2022-10-04T23:18:16;8.30;64.10
41220;DHT22;26951;47.338;9.196;2022-10-04T23:21:01;8.30;64.00
41220;DHT22;26951;47.338;9.196;2022-10-04T23:23:46;8.30;64.70
41220;DHT22;26951;47.338;9.196;2022-10-04T23:26:35;8.30;64.70
41220;DHT22;26951;47.338;9.196;2022-10-04T23:29:23;8.30;64.70
41220;DHT22;26951;47.338;9.196;2022-10-04T23:32:11;8.30;64.30
41220;DHT22;26951;47.338;9.196;2022-10-04T23:34:56;8.30;64.90
41220;DHT22;26951;47.338;9.196;2022-10-04T23:37:41;8.30;64.70
41220;DHT22;26951;47.338;9.196;2022-10-04T23:40:26;8.20;64.60
41220;DHT22;26951;47.338;9.196;2022-10-04T23:43:17;8.30;65.10
41220;DHT22;26951;47.338;9.196;2022-10-04T23:46:14;8.30;64.10
41220;DHT22;26951;47.338;9.196;2022-10-04T23:48:59;8.30;63.90
41220;DHT22;26951;47.338;9.196;2022-10-04T23:51:44;8.30;63.80
41220;DHT22;26951;47.338;9.196;2022-10-04T23:54:30;8.30;64.70
41220;DHT22;26951;47.338;9.196;2022-10-04T23:57:21;8.30;64.10
